Messwerte Garoua

Temperatur

Temperatur
°C
1594306800 16.00 16.00 32
1594310400 17.00 17.00 31
1594314000 18.00 18.00 28
1594317600 19.00 19.00 26
1594321200 20.00 20.00 25
1594324800 21.00 21.00 25
1594328400 22.00 22.00
1594332000 23.00 23.00
1594335600 0.00 0.00
1594339200 1.00 1.00
1594342800 2.00 2.00
1594346400 3.00 3.00
1594350000 4.00 4.00
1594353600 5.00 5.00
1594357200 6.00 6.00
1594360800 7.00 7.00
1594364400 8.00 8.00 25
1594368000 9.00 9.00 26
1594371600 10.00 10.00 27
1594375200 11.00 11.00 29
1594378800 12.00 12.00 27
1594382400 13.00 13.00
1594386000 14.00 14.00 23
1594389600 15.00 15.00 24

Aktuellste Messwerte

Wettercharakter
Wetter: vereinzelte Gewitter
Temperatur
24 °C
Feuchtigkeit
90 %
Wind
10 km/hWindrichtung: Nordwest
Luftdruck
1010 hPa
Messzeit: 10. Juli 2020, 15.00Datenquelle: METAR

Weitere Messstationen in der Nähe

Messstation Temperatur Entfernung
N’Djamena 31 °C 360 km

Wind

Windrichtung Böen Mittelwind
° km/h km/h
1594306800 16.00 15.00 - 16.00 290° 15
1594310400 17.00 16.00 - 17.00 280° 10
1594314000 18.00 17.00 - 18.00 140° 10
1594317600 19.00 18.00 - 19.00 120° 20
1594321200 20.00 19.00 - 20.00 100° 15
1594324800 21.00 20.00 - 21.00 110° 5
1594328400 22.00 21.00 - 22.00
1594332000 23.00 22.00 - 23.00
1594335600 0.00 23.00 - 0.00
1594339200 1.00 0.00 - 1.00
1594342800 2.00 1.00 - 2.00
1594346400 3.00 2.00 - 3.00
1594350000 4.00 3.00 - 4.00
1594353600 5.00 4.00 - 5.00
1594357200 6.00 5.00 - 6.00
1594360800 7.00 6.00 - 7.00
1594364400 8.00 7.00 - 8.00 340° 10
1594368000 9.00 8.00 - 9.00 270° 5
1594371600 10.00 9.00 - 10.00 300° 15
1594375200 11.00 10.00 - 11.00 260° 10
1594378800 12.00 11.00 - 12.00 160° 10
1594382400 13.00 12.00 - 13.00
1594386000 14.00 13.00 - 14.00 340° 10
1594389600 15.00 14.00 - 15.00 320° 10

Ihre Wetterstation

Fehlt Ihre Wetterstation auf unserem Portal?

Schreiben Sie an network@meteonews.ch